sensor_id;sensor_type;location;lat;lon;timestamp;P1;durP1;ratioP1;P2;durP2;ratioP2
5042;SDS011;2540;50.928;6.856;2023-05-10T00:00:12;22.57;;;12.53;;
5042;SDS011;2540;50.928;6.856;2023-05-10T00:02:38;21.87;;;11.40;;
5042;SDS011;2540;50.928;6.856;2023-05-10T00:05:04;19.47;;;11.00;;
5042;SDS011;2540;50.928;6.856;2023-05-10T00:07:30;22.70;;;10.93;;
5042;SDS011;2540;50.928;6.856;2023-05-10T00:09:55;21.10;;;12.27;;
5042;SDS011;2540;50.928;6.856;2023-05-10T00:12:20;24.33;;;12.97;;
5042;SDS011;2540;50.928;6.856;2023-05-10T00:14:46;25.27;;;11.97;;
5042;SDS011;2540;50.928;6.856;2023-05-10T00:17:11;23.80;;;12.90;;
5042;SDS011;2540;50.928;6.856;2023-05-10T00:19:37;23.63;;;12.83;;
5042;SDS011;2540;50.928;6.856;2023-05-10T00:22:02;23.30;;;12.03;;
5042;SDS011;2540;50.928;6.856;2023-05-10T00:24:28;20.87;;;11.10;;
5042;SDS011;2540;50.928;6.856;2023-05-10T00:26:53;24.00;;;11.60;;
5042;SDS011;2540;50.928;6.856;2023-05-10T00:29:18;21.80;;;11.73;;
5042;SDS011;2540;50.928;6.856;2023-05-10T00:31:44;24.90;;;12.90;;
5042;SDS011;2540;50.928;6.856;2023-05-10T00:34:10;23.67;;;12.60;;
5042;SDS011;2540;50.928;6.856;2023-05-10T00:36:35;24.07;;;14.03;;
5042;SDS011;2540;50.928;6.856;2023-05-10T00:39:01;23.03;;;12.23;;
5042;SDS011;2540;50.928;6.856;2023-05-10T00:41:28;23.03;;;12.80;;
5042;SDS011;2540;50.928;6.856;2023-05-10T00:43:54;24.23;;;12.87;;
5042;SDS011;2540;50.928;6.856;2023-05-10T00:46:19;25.67;;;12.37;;
5042;SDS011;2540;50.928;6.856;2023-05-10T00:48:45;27.50;;;13.53;;
5042;SDS011;2540;50.928;6.856;2023-05-10T00:51:10;24.10;;;12.87;;
5042;SDS011;2540;50.928;6.856;2023-05-10T00:53:36;27.33;;;12.63;;
5042;SDS011;2540;50.928;6.856;2023-05-10T00:56:01;26.00;;;13.20;;
5042;SDS011;2540;50.928;6.856;2023-05-10T00:58:28;26.70;;;13.57;;
5042;SDS011;2540;50.928;6.856;2023-05-10T01:00:55;33.57;;;13.43;;
5042;SDS011;2540;50.928;6.856;2023-05-10T01:03:22;24.97;;;13.33;;
5042;SDS011;2540;50.928;6.856;2023-05-10T01:05:47;29.70;;;13.10;;
5042;SDS011;2540;50.928;6.856;2023-05-10T01:08:12;28.83;;;13.60;;
5042;SDS011;2540;50.928;6.856;2023-05-10T01:10:38;25.93;;;13.50;;
5042;SDS011;2540;50.928;6.856;2023-05-10T01:13:03;29.43;;;13.70;;
5042;SDS011;2540;50.928;6.856;2023-05-10T01:15:29;24.13;;;12.80;;
5042;SDS011;2540;50.928;6.856;2023-05-10T01:17:55;25.90;;;13.10;;
5042;SDS011;2540;50.928;6.856;2023-05-10T01:20:21;29.00;;;13.07;;
5042;SDS011;2540;50.928;6.856;2023-05-10T01:22:54;20.03;;;10.90;;
5042;SDS011;2540;50.928;6.856;2023-05-10T01:43:56;18.67;;;9.50;;
5042;SDS011;2540;50.928;6.856;2023-05-10T01:46:28;20.27;;;10.53;;
5042;SDS011;2540;50.928;6.856;2023-05-10T01:48:58;17.30;;;10.50;;
5042;SDS011;2540;50.928;6.856;2023-05-10T01:51:27;19.00;;;9.20;;
5042;SDS011;2540;50.928;6.856;2023-05-10T01:54:01;20.43;;;10.70;;
5042;SDS011;2540;50.928;6.856;2023-05-10T01:56:28;19.57;;;11.10;;
5042;SDS011;2540;50.928;6.856;2023-05-10T01:58:55;21.30;;;11.30;;
5042;SDS011;2540;50.928;6.856;2023-05-10T02:01:21;25.80;;;11.87;;
5042;SDS011;2540;50.928;6.856;2023-05-10T02:03:47;24.50;;;11.10;;
5042;SDS011;2540;50.928;6.856;2023-05-10T02:06:13;24.97;;;12.20;;
5042;SDS011;2540;50.928;6.856;2023-05-10T02:08:39;23.30;;;12.17;;
5042;SDS011;2540;50.928;6.856;2023-05-10T02:11:05;18.43;;;10.93;;
5042;SDS011;2540;50.928;6.856;2023-05-10T02:13:31;21.00;;;11.20;;
5042;SDS011;2540;50.928;6.856;2023-05-10T02:15:59;21.80;;;11.53;;
5042;SDS011;2540;50.928;6.856;2023-05-10T02:18:25;17.60;;;10.63;;
5042;SDS011;2540;50.928;6.856;2023-05-10T02:20:52;25.63;;;11.70;;
5042;SDS011;2540;50.928;6.856;2023-05-10T02:23:18;24.77;;;12.20;;
5042;SDS011;2540;50.928;6.856;2023-05-10T02:25:45;27.73;;;11.87;;
5042;SDS011;2540;50.928;6.856;2023-05-10T02:28:11;21.93;;;11.60;;
5042;SDS011;2540;50.928;6.856;2023-05-10T02:30:37;23.33;;;10.73;;
5042;SDS011;2540;50.928;6.856;2023-05-10T02:33:03;20.90;;;10.40;;
5042;SDS011;2540;50.928;6.856;2023-05-10T02:35:29;25.20;;;12.30;;
5042;SDS011;2540;50.928;6.856;2023-05-10T02:37:55;22.13;;;11.83;;
5042;SDS011;2540;50.928;6.856;2023-05-10T02:40:21;24.13;;;11.30;;
5042;SDS011;2540;50.928;6.856;2023-05-10T02:42:48;21.10;;;10.20;;
5042;SDS011;2540;50.928;6.856;2023-05-10T02:45:17;24.30;;;11.30;;
5042;SDS011;2540;50.928;6.856;2023-05-10T02:47:44;22.13;;;11.00;;
5042;SDS011;2540;50.928;6.856;2023-05-10T02:50:10;18.30;;;9.77;;
5042;SDS011;2540;50.928;6.856;2023-05-10T02:52:39;18.50;;;9.73;;
5042;SDS011;2540;50.928;6.856;2023-05-10T02:55:07;26.87;;;11.07;;
5042;SDS011;2540;50.928;6.856;2023-05-10T02:57:34;21.70;;;10.83;;
5042;SDS011;2540;50.928;6.856;2023-05-10T03:00:02;21.70;;;11.43;;
5042;SDS011;2540;50.928;6.856;2023-05-10T03:02:28;19.90;;;9.87;;
5042;SDS011;2540;50.928;6.856;2023-05-10T03:04:55;24.57;;;11.50;;
5042;SDS011;2540;50.928;6.856;2023-05-10T03:07:21;27.60;;;11.23;;
5042;SDS011;2540;50.928;6.856;2023-05-10T03:09:47;26.70;;;11.80;;
5042;SDS011;2540;50.928;6.856;2023-05-10T03:17:39;24.80;;;12.70;;
5042;SDS011;2540;50.928;6.856;2023-05-10T03:20:11;25.70;;;13.80;;
5042;SDS011;2540;50.928;6.856;2023-05-10T03:22:47;28.53;;;12.77;;
5042;SDS011;2540;50.928;6.856;2023-05-10T03:25:13;29.90;;;13.50;;
5042;SDS011;2540;50.928;6.856;2023-05-10T03:27:40;27.00;;;13.40;;
5042;SDS011;2540;50.928;6.856;2023-05-10T03:30:08;34.40;;;13.63;;
5042;SDS011;2540;50.928;6.856;2023-05-10T03:32:36;26.73;;;13.17;;
5042;SDS011;2540;50.928;6.856;2023-05-10T03:35:08;28.30;;;12.93;;
5042;SDS011;2540;50.928;6.856;2023-05-10T03:37:34;29.43;;;15.40;;
5042;SDS011;2540;50.928;6.856;2023-05-10T03:39:59;31.13;;;14.70;;
5042;SDS011;2540;50.928;6.856;2023-05-10T03:42:25;26.80;;;13.37;;
5042;SDS011;2540;50.928;6.856;2023-05-10T03:44:50;27.33;;;13.43;;
5042;SDS011;2540;50.928;6.856;2023-05-10T03:47:15;28.90;;;14.43;;
5042;SDS011;2540;50.928;6.856;2023-05-10T03:49:41;26.87;;;13.97;;
5042;SDS011;2540;50.928;6.856;2023-05-10T03:52:06;24.33;;;13.03;;
5042;SDS011;2540;50.928;6.856;2023-05-10T03:54:32;34.90;;;13.37;;
5042;SDS011;2540;50.928;6.856;2023-05-10T03:56:57;27.10;;;13.27;;
5042;SDS011;2540;50.928;6.856;2023-05-10T03:59:23;28.80;;;13.37;;
5042;SDS011;2540;50.928;6.856;2023-05-10T04:01:48;31.00;;;13.47;;
5042;SDS011;2540;50.928;6.856;2023-05-10T04:04:14;26.50;;;13.30;;
5042;SDS011;2540;50.928;6.856;2023-05-10T04:06:39;22.27;;;12.87;;
5042;SDS011;2540;50.928;6.856;2023-05-10T04:09:04;30.27;;;12.77;;
5042;SDS011;2540;50.928;6.856;2023-05-10T04:11:30;28.80;;;12.90;;
5042;SDS011;2540;50.928;6.856;2023-05-10T04:13:55;28.70;;;15.37;;
5042;SDS011;2540;50.928;6.856;2023-05-10T04:16:21;26.73;;;13.40;;
5042;SDS011;2540;50.928;6.856;2023-05-10T04:18:46;28.50;;;13.67;;
5042;SDS011;2540;50.928;6.856;2023-05-10T04:21:13;28.63;;;14.00;;
5042;SDS011;2540;50.928;6.856;2023-05-10T04:23:38;30.77;;;15.00;;
5042;SDS011;2540;50.928;6.856;2023-05-10T04:26:04;36.67;;;16.50;;
5042;SDS011;2540;50.928;6.856;2023-05-10T04:28:29;33.10;;;14.90;;
5042;SDS011;2540;50.928;6.856;2023-05-10T04:31:02;34.20;;;16.47;;
5042;SDS011;2540;50.928;6.856;2023-05-10T04:33:30;40.70;;;17.00;;
5042;SDS011;2540;50.928;6.856;2023-05-10T04:35:56;32.80;;;15.40;;
5042;SDS011;2540;50.928;6.856;2023-05-10T04:38:21;37.83;;;17.10;;
5042;SDS011;2540;50.928;6.856;2023-05-10T04:40:47;34.33;;;15.90;;
5042;SDS011;2540;50.928;6.856;2023-05-10T04:43:12;27.80;;;15.73;;
5042;SDS011;2540;50.928;6.856;2023-05-10T04:45:38;39.50;;;17.00;;
5042;SDS011;2540;50.928;6.856;2023-05-10T04:48:03;34.10;;;16.50;;
5042;SDS011;2540;50.928;6.856;2023-05-10T04:50:29;36.83;;;15.87;;
5042;SDS011;2540;50.928;6.856;2023-05-10T04:52:55;32.70;;;16.37;;
5042;SDS011;2540;50.928;6.856;2023-05-10T04:55:20;31.33;;;15.10;;
5042;SDS011;2540;50.928;6.856;2023-05-10T04:57:46;31.53;;;15.33;;
5042;SDS011;2540;50.928;6.856;2023-05-10T05:00:11;31.97;;;14.93;;
5042;SDS011;2540;50.928;6.856;2023-05-10T05:02:37;28.67;;;15.60;;
5042;SDS011;2540;50.928;6.856;2023-05-10T05:05:02;31.43;;;14.87;;
5042;SDS011;2540;50.928;6.856;2023-05-10T05:07:28;33.00;;;14.80;;
5042;SDS011;2540;50.928;6.856;2023-05-10T05:09:55;29.33;;;14.43;;
5042;SDS011;2540;50.928;6.856;2023-05-10T05:12:20;27.17;;;14.20;;
5042;SDS011;2540;50.928;6.856;2023-05-10T05:14:46;31.53;;;14.83;;
5042;SDS011;2540;50.928;6.856;2023-05-10T05:17:11;29.37;;;14.77;;
5042;SDS011;2540;50.928;6.856;2023-05-10T05:19:36;27.30;;;13.40;;
5042;SDS011;2540;50.928;6.856;2023-05-10T05:22:02;27.47;;;13.63;;
5042;SDS011;2540;50.928;6.856;2023-05-10T05:24:27;30.47;;;13.70;;
5042;SDS011;2540;50.928;6.856;2023-05-10T05:26:53;38.70;;;14.37;;
5042;SDS011;2540;50.928;6.856;2023-05-10T05:29:18;35.97;;;13.97;;
5042;SDS011;2540;50.928;6.856;2023-05-10T05:31:44;30.63;;;13.40;;
5042;SDS011;2540;50.928;6.856;2023-05-10T05:34:09;34.93;;;13.90;;
5042;SDS011;2540;50.928;6.856;2023-05-10T05:36:37;29.07;;;13.50;;
5042;SDS011;2540;50.928;6.856;2023-05-10T05:39:03;29.30;;;13.37;;
5042;SDS011;2540;50.928;6.856;2023-05-10T05:41:29;29.67;;;13.50;;
5042;SDS011;2540;50.928;6.856;2023-05-10T05:43:54;33.60;;;13.23;;
5042;SDS011;2540;50.928;6.856;2023-05-10T05:46:20;26.80;;;12.97;;
5042;SDS011;2540;50.928;6.856;2023-05-10T05:48:45;36.70;;;13.00;;
5042;SDS011;2540;50.928;6.856;2023-05-10T05:51:10;34.07;;;12.30;;
5042;SDS011;2540;50.928;6.856;2023-05-10T05:53:36;27.87;;;12.27;;
5042;SDS011;2540;50.928;6.856;2023-05-10T05:56:01;28.07;;;11.30;;
5042;SDS011;2540;50.928;6.856;2023-05-10T05:58:27;26.23;;;12.60;;
5042;SDS011;2540;50.928;6.856;2023-05-10T06:00:53;34.17;;;12.87;;
5042;SDS011;2540;50.928;6.856;2023-05-10T06:03:18;30.07;;;12.63;;
5042;SDS011;2540;50.928;6.856;2023-05-10T06:05:43;28.97;;;12.03;;
5042;SDS011;2540;50.928;6.856;2023-05-10T06:08:09;27.37;;;12.80;;
5042;SDS011;2540;50.928;6.856;2023-05-10T06:10:35;24.30;;;11.63;;
5042;SDS011;2540;50.928;6.856;2023-05-10T06:13:00;24.13;;;12.50;;
5042;SDS011;2540;50.928;6.856;2023-05-10T06:15:26;30.70;;;12.77;;
5042;SDS011;2540;50.928;6.856;2023-05-10T06:17:52;25.40;;;11.70;;
5042;SDS011;2540;50.928;6.856;2023-05-10T06:20:18;23.60;;;11.83;;
5042;SDS011;2540;50.928;6.856;2023-05-10T06:22:43;25.73;;;10.70;;
5042;SDS011;2540;50.928;6.856;2023-05-10T06:25:09;22.40;;;12.33;;
5042;SDS011;2540;50.928;6.856;2023-05-10T06:27:35;30.63;;;14.63;;
5042;SDS011;2540;50.928;6.856;2023-05-10T06:30:00;31.30;;;12.27;;
5042;SDS011;2540;50.928;6.856;2023-05-10T06:32:26;32.27;;;13.20;;
5042;SDS011;2540;50.928;6.856;2023-05-10T06:34:51;28.60;;;13.43;;
5042;SDS011;2540;50.928;6.856;2023-05-10T06:37:17;25.70;;;11.80;;
5042;SDS011;2540;50.928;6.856;2023-05-10T06:39:42;30.50;;;14.13;;
5042;SDS011;2540;50.928;6.856;2023-05-10T06:42:07;31.13;;;13.30;;
5042;SDS011;2540;50.928;6.856;2023-05-10T06:44:33;29.17;;;11.97;;
5042;SDS011;2540;50.928;6.856;2023-05-10T06:46:58;33.20;;;12.80;;
5042;SDS011;2540;50.928;6.856;2023-05-10T06:49:24;28.40;;;15.10;;
5042;SDS011;2540;50.928;6.856;2023-05-10T06:51:49;31.00;;;14.27;;
5042;SDS011;2540;50.928;6.856;2023-05-10T06:54:14;32.53;;;13.53;;
5042;SDS011;2540;50.928;6.856;2023-05-10T06:56:40;37.93;;;15.30;;
5042;SDS011;2540;50.928;6.856;2023-05-10T06:59:05;37.43;;;15.27;;
5042;SDS011;2540;50.928;6.856;2023-05-10T07:01:32;30.63;;;15.40;;
5042;SDS011;2540;50.928;6.856;2023-05-10T07:03:57;42.37;;;14.90;;
5042;SDS011;2540;50.928;6.856;2023-05-10T07:06:23;33.33;;;15.47;;
5042;SDS011;2540;50.928;6.856;2023-05-10T07:08:48;34.13;;;14.57;;
5042;SDS011;2540;50.928;6.856;2023-05-10T07:11:13;29.37;;;13.27;;
5042;SDS011;2540;50.928;6.856;2023-05-10T07:13:39;31.17;;;13.80;;
5042;SDS011;2540;50.928;6.856;2023-05-10T07:16:06;35.57;;;14.90;;
5042;SDS011;2540;50.928;6.856;2023-05-10T07:18:33;30.83;;;14.33;;
5042;SDS011;2540;50.928;6.856;2023-05-10T07:20:58;25.47;;;11.80;;
5042;SDS011;2540;50.928;6.856;2023-05-10T07:23:23;28.57;;;12.70;;
5042;SDS011;2540;50.928;6.856;2023-05-10T07:25:50;28.00;;;12.30;;
5042;SDS011;2540;50.928;6.856;2023-05-10T07:28:17;31.07;;;13.70;;
5042;SDS011;2540;50.928;6.856;2023-05-10T07:30:43;27.33;;;14.10;;
5042;SDS011;2540;50.928;6.856;2023-05-10T07:33:09;26.83;;;13.23;;
5042;SDS011;2540;50.928;6.856;2023-05-10T07:35:35;35.17;;;14.30;;
5042;SDS011;2540;50.928;6.856;2023-05-10T07:38:01;36.53;;;13.83;;
5042;SDS011;2540;50.928;6.856;2023-05-10T07:40:27;27.47;;;12.50;;
5042;SDS011;2540;50.928;6.856;2023-05-10T07:42:53;36.87;;;14.03;;
5042;SDS011;2540;50.928;6.856;2023-05-10T07:45:18;29.30;;;13.43;;
5042;SDS011;2540;50.928;6.856;2023-05-10T07:47:43;26.40;;;13.80;;
5042;SDS011;2540;50.928;6.856;2023-05-10T07:50:09;34.43;;;14.73;;
5042;SDS011;2540;50.928;6.856;2023-05-10T07:52:34;32.30;;;12.27;;
5042;SDS011;2540;50.928;6.856;2023-05-10T07:55:00;27.77;;;14.50;;
5042;SDS011;2540;50.928;6.856;2023-05-10T07:57:25;33.17;;;13.67;;
5042;SDS011;2540;50.928;6.856;2023-05-10T07:59:50;30.80;;;11.63;;
5042;SDS011;2540;50.928;6.856;2023-05-10T08:02:16;18.00;;;9.23;;
5042;SDS011;2540;50.928;6.856;2023-05-10T08:04:41;21.20;;;8.37;;
5042;SDS011;2540;50.928;6.856;2023-05-10T08:07:07;17.60;;;8.23;;
5042;SDS011;2540;50.928;6.856;2023-05-10T08:09:32;12.93;;;7.67;;
5042;SDS011;2540;50.928;6.856;2023-05-10T08:11:58;17.90;;;5.93;;
5042;SDS011;2540;50.928;6.856;2023-05-10T08:14:25;15.27;;;5.80;;
5042;SDS011;2540;50.928;6.856;2023-05-10T08:16:50;6.80;;;4.63;;
5042;SDS011;2540;50.928;6.856;2023-05-10T08:19:16;9.60;;;5.27;;
5042;SDS011;2540;50.928;6.856;2023-05-10T08:21:44;13.30;;;5.80;;
5042;SDS011;2540;50.928;6.856;2023-05-10T08:24:10;13.50;;;7.03;;
5042;SDS011;2540;50.928;6.856;2023-05-10T08:26:35;23.53;;;6.80;;
5042;SDS011;2540;50.928;6.856;2023-05-10T08:29:01;13.00;;;8.67;;
5042;SDS011;2540;50.928;6.856;2023-05-10T08:31:26;18.77;;;8.90;;
5042;SDS011;2540;50.928;6.856;2023-05-10T08:33:52;19.83;;;9.20;;
5042;SDS011;2540;50.928;6.856;2023-05-10T08:36:17;16.97;;;10.20;;
5042;SDS011;2540;50.928;6.856;2023-05-10T08:38:46;15.83;;;9.10;;
5042;SDS011;2540;50.928;6.856;2023-05-10T08:41:14;20.70;;;10.03;;
5042;SDS011;2540;50.928;6.856;2023-05-10T08:43:40;17.90;;;11.27;;
5042;SDS011;2540;50.928;6.856;2023-05-10T08:46:11;21.43;;;9.97;;
5042;SDS011;2540;50.928;6.856;2023-05-10T08:48:41;22.33;;;11.63;;
5042;SDS011;2540;50.928;6.856;2023-05-10T08:51:07;21.80;;;11.07;;
5042;SDS011;2540;50.928;6.856;2023-05-10T08:53:33;20.57;;;10.30;;
5042;SDS011;2540;50.928;6.856;2023-05-10T08:56:01;17.83;;;9.93;;
5042;SDS011;2540;50.928;6.856;2023-05-10T08:58:27;19.03;;;11.00;;
5042;SDS011;2540;50.928;6.856;2023-05-10T09:00:53;19.17;;;8.90;;
5042;SDS011;2540;50.928;6.856;2023-05-10T09:03:18;17.10;;;9.70;;
5042;SDS011;2540;50.928;6.856;2023-05-10T09:05:43;18.37;;;9.80;;
5042;SDS011;2540;50.928;6.856;2023-05-10T09:08:09;12.50;;;8.90;;
5042;SDS011;2540;50.928;6.856;2023-05-10T09:10:36;16.30;;;9.00;;
5042;SDS011;2540;50.928;6.856;2023-05-10T09:13:03;13.60;;;7.57;;
5042;SDS011;2540;50.928;6.856;2023-05-10T09:15:29;12.03;;;8.20;;
5042;SDS011;2540;50.928;6.856;2023-05-10T09:17:54;14.67;;;7.87;;
5042;SDS011;2540;50.928;6.856;2023-05-10T09:20:20;13.43;;;6.80;;
5042;SDS011;2540;50.928;6.856;2023-05-10T09:22:45;9.90;;;6.40;;
5042;SDS011;2540;50.928;6.856;2023-05-10T09:25:14;13.33;;;7.40;;
5042;SDS011;2540;50.928;6.856;2023-05-10T09:27:41;13.47;;;6.33;;
5042;SDS011;2540;50.928;6.856;2023-05-10T09:30:10;17.20;;;8.77;;
5042;SDS011;2540;50.928;6.856;2023-05-10T09:35:07;26.63;;;10.23;;
5042;SDS011;2540;50.928;6.856;2023-05-10T09:37:41;18.70;;;9.03;;
5042;SDS011;2540;50.928;6.856;2023-05-10T09:40:08;24.80;;;9.60;;
5042;SDS011;2540;50.928;6.856;2023-05-10T09:42:36;19.43;;;10.07;;
5042;SDS011;2540;50.928;6.856;2023-05-10T09:45:02;22.50;;;10.53;;
5042;SDS011;2540;50.928;6.856;2023-05-10T09:47:34;24.33;;;9.90;;
5042;SDS011;2540;50.928;6.856;2023-05-10T09:50:01;27.77;;;11.30;;
5042;SDS011;2540;50.928;6.856;2023-05-10T09:52:29;24.80;;;10.43;;
5042;SDS011;2540;50.928;6.856;2023-05-10T09:55:12;25.60;;;11.17;;
5042;SDS011;2540;50.928;6.856;2023-05-10T09:57:38;19.33;;;9.77;;
5042;SDS011;2540;50.928;6.856;2023-05-10T10:00:04;28.90;;;12.50;;
5042;SDS011;2540;50.928;6.856;2023-05-10T10:02:30;21.73;;;11.10;;
5042;SDS011;2540;50.928;6.856;2023-05-10T10:04:56;23.47;;;11.17;;
5042;SDS011;2540;50.928;6.856;2023-05-10T10:07:22;19.37;;;10.40;;
5042;SDS011;2540;50.928;6.856;2023-05-10T10:09:49;16.07;;;7.87;;
5042;SDS011;2540;50.928;6.856;2023-05-10T10:12:14;26.30;;;8.23;;
5042;SDS011;2540;50.928;6.856;2023-05-10T10:14:40;16.03;;;7.73;;
5042;SDS011;2540;50.928;6.856;2023-05-10T10:17:05;15.30;;;7.87;;
5042;SDS011;2540;50.928;6.856;2023-05-10T10:19:32;15.17;;;7.17;;
5042;SDS011;2540;50.928;6.856;2023-05-10T10:21:58;17.60;;;7.50;;
5042;SDS011;2540;50.928;6.856;2023-05-10T10:24:25;12.73;;;6.90;;
5042;SDS011;2540;50.928;6.856;2023-05-10T10:26:51;15.17;;;6.57;;
5042;SDS011;2540;50.928;6.856;2023-05-10T10:34:32;25.60;;;10.03;;
5042;SDS011;2540;50.928;6.856;2023-05-10T10:36:58;24.77;;;9.80;;
5042;SDS011;2540;50.928;6.856;2023-05-10T10:39:29;21.70;;;8.73;;
5042;SDS011;2540;50.928;6.856;2023-05-10T10:41:56;21.90;;;9.17;;
5042;SDS011;2540;50.928;6.856;2023-05-10T10:47:00;19.23;;;8.50;;
5042;SDS011;2540;50.928;6.856;2023-05-10T10:49:26;15.80;;;8.83;;
5042;SDS011;2540;50.928;6.856;2023-05-10T10:58:12;15.20;;;6.40;;
5042;SDS011;2540;50.928;6.856;2023-05-10T11:00:29;7.10;;;4.50;;
5042;SDS011;2540;50.928;6.856;2023-05-10T11:02:56;8.30;;;4.87;;
5042;SDS011;2540;50.928;6.856;2023-05-10T11:07:58;9.13;;;5.57;;
5042;SDS011;2540;50.928;6.856;2023-05-10T11:10:25;8.20;;;3.77;;
5042;SDS011;2540;50.928;6.856;2023-05-10T11:15:17;6.40;;;3.97;;
5042;SDS011;2540;50.928;6.856;2023-05-10T11:17:42;6.87;;;3.50;;
5042;SDS011;2540;50.928;6.856;2023-05-10T11:20:08;6.93;;;3.33;;
5042;SDS011;2540;50.928;6.856;2023-05-10T11:22:53;5.10;;;3.03;;
5042;SDS011;2540;50.928;6.856;2023-05-10T11:25:19;8.80;;;3.20;;
5042;SDS011;2540;50.928;6.856;2023-05-10T11:27:46;4.53;;;2.87;;
5042;SDS011;2540;50.928;6.856;2023-05-10T11:30:12;4.87;;;2.80;;
5042;SDS011;2540;50.928;6.856;2023-05-10T11:32:40;4.63;;;2.93;;
5042;SDS011;2540;50.928;6.856;2023-05-10T11:35:09;2.97;;;2.70;;
5042;SDS011;2540;50.928;6.856;2023-05-10T11:37:35;4.97;;;3.10;;
5042;SDS011;2540;50.928;6.856;2023-05-10T11:40:01;3.10;;;2.53;;
5042;SDS011;2540;50.928;6.856;2023-05-10T11:42:27;6.47;;;3.10;;
5042;SDS011;2540;50.928;6.856;2023-05-10T11:44:53;2.57;;;2.07;;
5042;SDS011;2540;50.928;6.856;2023-05-10T11:47:18;3.97;;;2.33;;
5042;SDS011;2540;50.928;6.856;2023-05-10T11:49:44;5.10;;;2.53;;
5042;SDS011;2540;50.928;6.856;2023-05-10T11:52:10;8.53;;;2.70;;
5042;SDS011;2540;50.928;6.856;2023-05-10T11:54:44;3.83;;;2.70;;
5042;SDS011;2540;50.928;6.856;2023-05-10T11:57:11;2.73;;;2.43;;
5042;SDS011;2540;50.928;6.856;2023-05-10T11:59:37;3.90;;;2.57;;
5042;SDS011;2540;50.928;6.856;2023-05-10T12:02:02;2.90;;;2.37;;
5042;SDS011;2540;50.928;6.856;2023-05-10T12:04:28;4.40;;;2.27;;
5042;SDS011;2540;50.928;6.856;2023-05-10T12:06:54;3.03;;;2.83;;
5042;SDS011;2540;50.928;6.856;2023-05-10T12:09:19;2.50;;;2.30;;
5042;SDS011;2540;50.928;6.856;2023-05-10T12:11:45;2.97;;;2.30;;
5042;SDS011;2540;50.928;6.856;2023-05-10T12:14:10;2.67;;;2.03;;
5042;SDS011;2540;50.928;6.856;2023-05-10T12:16:36;2.60;;;2.20;;
5042;SDS011;2540;50.928;6.856;2023-05-10T12:19:01;2.60;;;2.40;;
5042;SDS011;2540;50.928;6.856;2023-05-10T12:21:30;1.97;;;1.77;;
5042;SDS011;2540;50.928;6.856;2023-05-10T12:23:58;2.10;;;1.90;;
5042;SDS011;2540;50.928;6.856;2023-05-10T12:26:25;3.00;;;2.20;;
5042;SDS011;2540;50.928;6.856;2023-05-10T12:28:54;2.70;;;2.37;;
5042;SDS011;2540;50.928;6.856;2023-05-10T12:31:20;4.77;;;2.20;;
5042;SDS011;2540;50.928;6.856;2023-05-10T12:33:45;4.07;;;2.90;;
5042;SDS011;2540;50.928;6.856;2023-05-10T12:36:13;3.30;;;2.40;;
5042;SDS011;2540;50.928;6.856;2023-05-10T12:38:40;3.30;;;2.37;;
5042;SDS011;2540;50.928;6.856;2023-05-10T12:41:10;2.70;;;2.50;;
5042;SDS011;2540;50.928;6.856;2023-05-10T12:43:37;3.37;;;2.30;;
5042;SDS011;2540;50.928;6.856;2023-05-10T12:46:07;2.80;;;2.50;;
5042;SDS011;2540;50.928;6.856;2023-05-10T12:48:33;2.10;;;2.00;;
5042;SDS011;2540;50.928;6.856;2023-05-10T12:51:00;3.27;;;2.90;;
5042;SDS011;2540;50.928;6.856;2023-05-10T12:53:26;3.27;;;2.13;;
5042;SDS011;2540;50.928;6.856;2023-05-10T12:55:51;2.23;;;2.00;;
5042;SDS011;2540;50.928;6.856;2023-05-10T12:58:18;1.93;;;1.67;;
5042;SDS011;2540;50.928;6.856;2023-05-10T13:00:43;7.23;;;2.07;;
5042;SDS011;2540;50.928;6.856;2023-05-10T13:03:09;1.53;;;1.43;;
5042;SDS011;2540;50.928;6.856;2023-05-10T13:05:35;2.73;;;2.50;;
5042;SDS011;2540;50.928;6.856;2023-05-10T13:08:00;2.27;;;2.07;;
5042;SDS011;2540;50.928;6.856;2023-05-10T13:10:26;1.70;;;1.60;;
5042;SDS011;2540;50.928;6.856;2023-05-10T13:12:51;1.97;;;1.87;;
5042;SDS011;2540;50.928;6.856;2023-05-10T13:15:17;1.57;;;1.47;;
5042;SDS011;2540;50.928;6.856;2023-05-10T13:17:42;1.60;;;1.50;;
5042;SDS011;2540;50.928;6.856;2023-05-10T13:20:08;1.87;;;1.10;;
5042;SDS011;2540;50.928;6.856;2023-05-10T13:22:34;4.30;;;2.23;;
5042;SDS011;2540;50.928;6.856;2023-05-10T13:25:00;1.47;;;1.30;;
5042;SDS011;2540;50.928;6.856;2023-05-10T13:27:26;1.47;;;1.37;;
5042;SDS011;2540;50.928;6.856;2023-05-10T13:29:51;2.37;;;1.23;;
5042;SDS011;2540;50.928;6.856;2023-05-10T13:32:16;2.87;;;1.20;;
5042;SDS011;2540;50.928;6.856;2023-05-10T13:34:42;4.60;;;1.50;;
5042;SDS011;2540;50.928;6.856;2023-05-10T13:37:07;1.53;;;1.43;;
5042;SDS011;2540;50.928;6.856;2023-05-10T13:39:33;1.37;;;1.27;;
5042;SDS011;2540;50.928;6.856;2023-05-10T13:41:59;1.43;;;1.33;;
5042;SDS011;2540;50.928;6.856;2023-05-10T13:44:24;1.97;;;1.00;;
5042;SDS011;2540;50.928;6.856;2023-05-10T13:46:50;1.23;;;1.10;;
5042;SDS011;2540;50.928;6.856;2023-05-10T13:49:16;2.57;;;1.17;;
5042;SDS011;2540;50.928;6.856;2023-05-10T13:51:43;2.30;;;1.30;;
5042;SDS011;2540;50.928;6.856;2023-05-10T13:54:09;1.63;;;1.17;;
5042;SDS011;2540;50.928;6.856;2023-05-10T13:56:34;1.10;;;1.00;;
5042;SDS011;2540;50.928;6.856;2023-05-10T13:59:00;5.83;;;1.37;;
5042;SDS011;2540;50.928;6.856;2023-05-10T14:01:25;1.17;;;1.07;;
5042;SDS011;2540;50.928;6.856;2023-05-10T14:03:50;2.93;;;1.00;;
5042;SDS011;2540;50.928;6.856;2023-05-10T14:06:16;2.10;;;1.17;;
5042;SDS011;2540;50.928;6.856;2023-05-10T14:08:42;2.10;;;1.33;;
5042;SDS011;2540;50.928;6.856;2023-05-10T14:11:07;2.00;;;1.20;;
5042;SDS011;2540;50.928;6.856;2023-05-10T14:13:33;1.80;;;1.00;;
5042;SDS011;2540;50.928;6.856;2023-05-10T14:15:58;1.47;;;1.03;;
5042;SDS011;2540;50.928;6.856;2023-05-10T14:18:26;2.17;;;1.30;;
5042;SDS011;2540;50.928;6.856;2023-05-10T14:20:51;1.93;;;1.20;;
5042;SDS011;2540;50.928;6.856;2023-05-10T14:23:17;1.00;;;0.90;;
5042;SDS011;2540;50.928;6.856;2023-05-10T14:25:44;3.30;;;1.20;;
5042;SDS011;2540;50.928;6.856;2023-05-10T14:28:09;1.83;;;1.00;;
5042;SDS011;2540;50.928;6.856;2023-05-10T14:30:35;1.70;;;0.93;;
5042;SDS011;2540;50.928;6.856;2023-05-10T14:33:01;1.30;;;1.20;;
5042;SDS011;2540;50.928;6.856;2023-05-10T14:35:27;3.93;;;1.40;;
5042;SDS011;2540;50.928;6.856;2023-05-10T14:37:53;1.50;;;1.10;;
5042;SDS011;2540;50.928;6.856;2023-05-10T14:40:19;1.90;;;1.30;;
5042;SDS011;2540;50.928;6.856;2023-05-10T14:42:44;2.13;;;1.57;;
5042;SDS011;2540;50.928;6.856;2023-05-10T14:45:10;2.00;;;1.53;;
5042;SDS011;2540;50.928;6.856;2023-05-10T14:47:36;3.83;;;1.73;;
5042;SDS011;2540;50.928;6.856;2023-05-10T14:50:01;3.03;;;2.00;;
5042;SDS011;2540;50.928;6.856;2023-05-10T14:52:27;3.07;;;1.90;;
5042;SDS011;2540;50.928;6.856;2023-05-10T14:54:52;3.03;;;2.03;;
5042;SDS011;2540;50.928;6.856;2023-05-10T14:57:18;2.57;;;1.60;;
5042;SDS011;2540;50.928;6.856;2023-05-10T14:59:43;9.30;;;1.53;;
5042;SDS011;2540;50.928;6.856;2023-05-10T15:02:09;1.97;;;1.40;;
5042;SDS011;2540;50.928;6.856;2023-05-10T15:04:35;2.03;;;1.70;;
5042;SDS011;2540;50.928;6.856;2023-05-10T15:07:00;5.53;;;1.60;;
5042;SDS011;2540;50.928;6.856;2023-05-10T15:09:26;2.10;;;1.70;;
5042;SDS011;2540;50.928;6.856;2023-05-10T15:11:52;3.20;;;1.70;;
5042;SDS011;2540;50.928;6.856;2023-05-10T15:14:18;2.80;;;2.30;;
5042;SDS011;2540;50.928;6.856;2023-05-10T15:16:43;2.33;;;1.63;;
5042;SDS011;2540;50.928;6.856;2023-05-10T15:19:09;2.40;;;2.10;;
5042;SDS011;2540;50.928;6.856;2023-05-10T15:21:34;3.97;;;2.00;;
5042;SDS011;2540;50.928;6.856;2023-05-10T15:24:04;2.00;;;1.80;;
5042;SDS011;2540;50.928;6.856;2023-05-10T15:26:30;5.17;;;2.00;;
5042;SDS011;2540;50.928;6.856;2023-05-10T15:28:56;1.70;;;1.53;;
5042;SDS011;2540;50.928;6.856;2023-05-10T15:31:21;4.50;;;1.80;;
5042;SDS011;2540;50.928;6.856;2023-05-10T15:33:47;3.80;;;1.77;;
5042;SDS011;2540;50.928;6.856;2023-05-10T15:36:12;2.27;;;1.80;;